Time;durP1;ratioP1;P1;durP2;ratioP2;P2;SDS_P1;SDS_P2;PMS_P1;PMS_P2;Temp;Humidity;BMP_temperature;BMP_pressure;BME280_temperature;BME280_humidity;BME280_pressure;Samples;Min_cycle;Max_cycle;Signal;HPM_P1;HPM_P2
2021/03/19 00:00:05;;;;;;;19.73;12.27;;;2.80;94.40;;;;;;5052640;28;20505;-84
2021/03/19 00:02:31;;;;;;;21.52;13.48;;;2.80;94.70;;;;;;5052768;28;20028;-85
2021/03/19 00:04:57;;;;;;;21.35;13.43;;;2.80;94.90;;;;;;5052702;28;20170;-85
2021/03/19 00:07:24;;;;;;;19.70;12.65;;;2.70;95.10;;;;;;5052791;28;20036;-85
2021/03/19 00:09:53;;;;;;;18.42;12.30;;;2.70;95.10;;;;;;5052691;28;20024;-85
2021/03/19 00:12:19;;;;;;;20.77;12.63;;;2.70;95.10;;;;;;5052691;28;20028;-85
2021/03/19 00:14:45;;;;;;;22.45;13.85;;;2.80;94.90;;;;;;5054200;28;20095;-85
2021/03/19 00:17:11;;;;;;;18.50;12.23;;;2.70;95.50;;;;;;5052682;28;20025;-84
2021/03/19 00:19:37;;;;;;;22.83;13.25;;;2.70;95.00;;;;;;5053852;28;20519;-85
2021/03/19 00:22:02;;;;;;;23.52;13.80;;;2.80;95.20;;;;;;5052533;28;20123;-85
2021/03/19 00:24:28;;;;;;;22.42;13.48;;;2.70;95.30;;;;;;5052537;28;20892;-84
2021/03/19 00:26:54;;;;;;;21.90;12.32;;;2.70;95.20;;;;;;5052506;28;20060;-85
2021/03/19 00:29:19;;;;;;;22.70;13.88;;;2.70;95.10;;;;;;5053767;28;20033;-85
2021/03/19 00:31:45;;;;;;;23.52;13.70;;;2.80;95.40;;;;;;5052267;28;20049;-85
2021/03/19 00:34:11;;;;;;;22.70;12.88;;;2.70;95.50;;;;;;5053809;28;20021;-85
2021/03/19 00:36:36;;;;;;;25.77;14.23;;;2.70;95.30;;;;;;5052545;28;20031;-85
2021/03/19 00:39:03;;;;;;;21.83;13.68;;;2.70;95.60;;;;;;5053731;28;20108;-85
2021/03/19 00:41:28;;;;;;;23.88;13.93;;;2.60;95.70;;;;;;5053730;28;20025;-85
2021/03/19 00:43:54;;;;;;;20.77;12.77;;;2.60;96.00;;;;;;5053617;28;20033;-85
2021/03/19 00:46:20;;;;;;;17.05;11.10;;;2.60;95.80;;;;;;5052364;28;20029;-85
2021/03/19 00:48:45;;;;;;;22.63;13.60;;;2.60;95.80;;;;;;5053593;28;20036;-85
2021/03/19 00:51:13;;;;;;;22.00;12.88;;;2.60;95.80;;;;;;5053535;28;20498;-85
2021/03/19 00:53:39;;;;;;;18.05;11.50;;;2.60;95.80;;;;;;5055060;28;20025;-85
2021/03/19 00:56:05;;;;;;;19.00;11.73;;;2.60;95.70;;;;;;5056248;28;20601;-85
2021/03/19 00:58:31;;;;;;;17.15;12.30;;;2.70;95.40;;;;;;5057524;28;20031;-85
2021/03/19 01:00:56;;;;;;;20.15;12.50;;;2.70;95.30;;;;;;5057472;28;20036;-85
2021/03/19 01:03:22;;;;;;;20.67;12.85;;;2.70;95.60;;;;;;5056166;28;20035;-85
2021/03/19 01:05:48;;;;;;;20.55;12.63;;;2.60;95.80;;;;;;5057438;28;20471;-85
2021/03/19 01:08:15;;;;;;;18.83;12.43;;;2.60;95.80;;;;;;5056192;28;20063;-85
2021/03/19 01:10:53;;;;;;;20.92;13.07;;;2.60;95.80;;;;;;5056041;28;20025;-85
2021/03/19 01:13:19;;;;;;;19.42;13.20;;;2.60;95.70;;;;;;5054698;28;20025;-85
2021/03/19 01:15:45;;;;;;;23.92;13.25;;;2.60;95.80;;;;;;5057400;28;20032;-85
2021/03/19 01:18:13;;;;;;;18.08;11.25;;;2.60;95.90;;;;;;5055928;28;20078;-85
2021/03/19 01:20:40;;;;;;;22.90;13.75;;;2.60;95.60;;;;;;5055864;28;20021;-85
2021/03/19 01:23:17;;;;;;;18.17;12.05;;;2.60;95.90;;;;;;5056925;28;20017;-84
2021/03/19 01:25:43;;;;;;;22.40;13.57;;;2.60;95.90;;;;;;5056819;28;20429;-85
2021/03/19 01:28:09;;;;;;;23.00;13.00;;;2.60;96.10;;;;;;5055819;28;20029;-85
2021/03/19 01:30:37;;;;;;;20.02;13.05;;;2.50;96.30;;;;;;5055410;28;20056;-85
2021/03/19 01:33:04;;;;;;;21.17;12.88;;;2.50;96.20;;;;;;5056688;28;20028;-84
2021/03/19 01:35:34;;;;;;;16.23;10.32;;;2.50;96.00;;;;;;5042510;28;20097;-85
2021/03/19 01:38:00;;;;;;;15.10;10.18;;;2.60;95.70;;;;;;5036892;28;20029;-85
2021/03/19 01:40:31;;;;;;;18.63;11.35;;;2.60;95.60;;;;;;5045620;28;20025;-85
2021/03/19 01:43:00;;;;;;;15.30;10.18;;;2.70;95.50;;;;;;5055333;28;20037;-84
2021/03/19 01:46:03;;;;;;;17.30;10.80;;;2.70;95.40;;;;;;5056633;28;20471;-85
2021/03/19 01:49:06;;;;;;;19.17;12.32;;;2.70;95.40;;;;;;5056545;28;20074;-85
2021/03/19 01:52:09;;;;;;;18.38;11.93;;;2.70;95.50;;;;;;5055200;28;20047;-85
2021/03/19 01:55:12;;;;;;;14.90;9.57;;;2.60;96.00;;;;;;5055207;28;20367;-85
2021/03/19 01:58:15;;;;;;;18.58;10.35;;;2.60;95.70;;;;;;5056394;28;20025;-85
2021/03/19 02:01:18;;;;;;;20.35;13.20;;;2.60;95.90;;;;;;5056449;28;20025;-85
2021/03/19 02:04:21;;;;;;;18.40;11.27;;;2.50;96.20;;;;;;5054517;28;20476;-85
2021/03/19 02:07:24;;;;;;;19.77;12.10;;;2.50;95.90;;;;;;5052679;28;20033;-85
2021/03/19 02:10:28;;;;;;;16.35;10.30;;;2.50;96.00;;;;;;5035051;28;20079;-85
2021/03/19 02:13:31;;;;;;;21.17;11.02;;;2.60;95.60;;;;;;5034836;28;20029;-85
2021/03/19 02:16:34;;;;;;;14.40;10.23;;;2.60;95.80;;;;;;5036243;28;20482;-85
2021/03/19 02:19:37;;;;;;;17.73;11.18;;;2.60;95.70;;;;;;5035025;28;20037;-85
2021/03/19 02:22:40;;;;;;;15.65;10.20;;;2.60;95.90;;;;;;5045980;28;20466;-85
2021/03/19 02:25:43;;;;;;;17.33;11.68;;;2.60;95.70;;;;;;5055806;28;20100;-85
2021/03/19 02:28:46;;;;;;;19.98;12.60;;;2.60;95.80;;;;;;5054649;28;20021;-85
2021/03/19 02:31:12;;;;;;;13.75;9.10;;;2.50;96.20;;;;;;5055403;28;20083;-85
2021/03/19 02:33:46;;;;;;;18.42;11.93;;;2.50;95.80;;;;;;5054478;28;20029;-85
2021/03/19 02:36:13;;;;;;;15.52;9.90;;;2.50;95.90;;;;;;5055831;28;20056;-85
2021/03/19 02:38:39;;;;;;;15.05;10.10;;;2.50;95.70;;;;;;5054574;28;20048;-85
2021/03/19 02:41:05;;;;;;;14.65;9.48;;;2.50;95.50;;;;;;5055519;28;20048;-85
2021/03/19 02:43:31;;;;;;;14.80;9.35;;;2.50;95.50;;;;;;5055732;28;20064;-85
2021/03/19 02:45:57;;;;;;;16.98;10.65;;;2.60;95.50;;;;;;5054336;28;20029;-84
2021/03/19 02:48:23;;;;;;;16.73;10.90;;;2.50;95.70;;;;;;5054247;28;20036;-84
2021/03/19 02:50:49;;;;;;;16.60;10.60;;;2.50;95.90;;;;;;5055173;28;20057;-85
2021/03/19 02:53:19;;;;;;;18.58;10.88;;;2.50;95.90;;;;;;5055325;28;20953;-85
2021/03/19 02:55:45;;;;;;;17.08;10.40;;;2.50;95.80;;;;;;5055559;28;20025;-85
2021/03/19 02:58:11;;;;;;;21.27;12.38;;;2.50;96.00;;;;;;5053987;28;20532;-85
2021/03/19 03:00:37;;;;;;;19.30;12.85;;;2.50;95.70;;;;;;5055157;28;20025;-85
2021/03/19 03:03:04;;;;;;;20.13;11.43;;;2.50;95.90;;;;;;5053755;28;20032;-85
2021/03/19 03:05:30;;;;;;;23.02;13.90;;;2.50;95.70;;;;;;5055052;28;20017;-85
2021/03/19 03:07:56;;;;;;;23.15;12.70;;;2.40;96.50;;;;;;5054932;28;20017;-85
2021/03/19 03:10:24;;;;;;;17.65;12.00;;;2.40;96.20;;;;;;5053320;28;20390;-85
2021/03/19 03:12:50;;;;;;;18.00;11.07;;;2.40;96.30;;;;;;5054746;28;20036;-85
2021/03/19 03:15:18;;;;;;;18.35;11.40;;;2.40;96.10;;;;;;5052985;28;20022;-85
2021/03/19 03:17:44;;;;;;;17.50;11.75;;;2.40;96.30;;;;;;5054882;28;20049;-85
2021/03/19 03:20:19;;;;;;;22.65;14.02;;;2.40;96.20;;;;;;5053591;28;20021;-85
2021/03/19 03:22:45;;;;;;;19.00;11.75;;;2.40;96.20;;;;;;5054595;28;20028;-84
2021/03/19 03:25:13;;;;;;;19.38;12.07;;;2.40;96.10;;;;;;5053368;28;20025;-84
2021/03/19 03:27:40;;;;;;;20.08;12.18;;;2.40;96.20;;;;;;5054568;28;20029;-84
2021/03/19 03:30:11;;;;;;;18.67;10.70;;;2.30;96.30;;;;;;5054295;28;20429;-83
2021/03/19 03:32:36;;;;;;;17.13;11.38;;;2.40;96.00;;;;;;5054490;28;20032;-84
2021/03/19 03:35:04;;;;;;;24.65;11.55;;;2.40;95.90;;;;;;5053076;28;20071;-83
2021/03/19 03:37:30;;;;;;;23.05;14.02;;;2.50;95.80;;;;;;5054250;28;20028;-85
2021/03/19 03:39:56;;;;;;;22.42;13.68;;;2.40;96.30;;;;;;5051937;28;20078;-84
2021/03/19 03:42:21;;;;;;;23.75;15.00;;;2.40;96.10;;;;;;5052706;28;20029;-85
2021/03/19 03:44:47;;;;;;;22.17;13.98;;;2.30;96.50;;;;;;5038789;28;20029;-84
2021/03/19 03:47:13;;;;;;;21.35;13.05;;;2.30;96.20;;;;;;5034408;28;20100;-85
2021/03/19 03:49:38;;;;;;;23.85;14.15;;;2.40;96.60;;;;;;5046005;28;20120;-84
2021/03/19 03:52:04;;;;;;;24.00;13.60;;;2.30;96.50;;;;;;5050681;28;20068;-85
2021/03/19 03:54:30;;;;;;;20.38;12.65;;;2.30;96.20;;;;;;5052517;28;20025;-84
2021/03/19 03:56:55;;;;;;;22.30;14.52;;;2.30;96.30;;;;;;5050632;28;20429;-85
2021/03/19 03:59:21;;;;;;;25.38;14.43;;;2.30;96.40;;;;;;5054436;28;20051;-85
2021/03/19 04:01:48;;;;;;;27.85;17.15;;;2.30;96.30;;;;;;5053970;28;20021;-85
2021/03/19 04:04:17;;;;;;;25.00;15.43;;;2.20;96.80;;;;;;5052565;28;20033;-81
2021/03/19 04:06:42;;;;;;;22.42;13.85;;;2.20;96.80;;;;;;5053859;28;20031;-81
2021/03/19 04:09:08;;;;;;;21.90;13.48;;;2.20;96.60;;;;;;5053811;28;20522;-87
2021/03/19 04:11:34;;;;;;;20.42;12.77;;;2.20;96.50;;;;;;5052777;28;20079;-81
2021/03/19 04:13:59;;;;;;;24.38;13.35;;;2.30;96.30;;;;;;5052428;28;20021;-81
2021/03/19 04:16:27;;;;;;;28.27;15.18;;;2.30;96.20;;;;;;5052963;28;20025;-80
2021/03/19 04:18:52;;;;;;;24.63;12.88;;;2.30;96.40;;;;;;5052949;28;20071;-78
2021/03/19 04:21:18;;;;;;;28.45;16.40;;;2.30;96.30;;;;;;5051753;28;20021;-80
2021/03/19 04:23:49;;;;;;;24.67;14.55;;;2.30;96.50;;;;;;5052708;28;20025;-82
2021/03/19 04:26:27;;;;;;;22.25;14.65;;;2.20;96.70;;;;;;5043895;28;20025;-81
2021/03/19 04:28:58;;;;;;;26.25;16.73;;;2.20;96.80;;;;;;5033585;28;20022;-83
2021/03/19 04:31:25;;;;;;;23.88;14.27;;;2.20;97.00;;;;;;5032464;28;20142;-81
2021/03/19 04:33:51;;;;;;;22.58;14.60;;;2.20;96.80;;;;;;5078667;28;20122;-82
2021/03/19 04:36:41;;;;;;;29.85;16.73;;;2.30;96.80;;;;;;5053294;28;20021;-81
2021/03/19 04:39:12;;;;;;;22.75;13.98;;;2.20;97.20;;;;;;5052148;28;20024;-82
2021/03/19 04:41:38;;;;;;;23.33;14.63;;;2.20;96.80;;;;;;5052008;28;20033;-82
2021/03/19 04:44:04;;;;;;;22.75;14.38;;;2.30;96.90;;;;;;5052132;28;20520;-82
2021/03/19 04:46:30;;;;;;;22.33;14.02;;;2.30;97.00;;;;;;5051546;28;20437;-81
2021/03/19 04:48:56;;;;;;;20.73;13.40;;;2.30;96.80;;;;;;5039815;28;20025;-81
2021/03/19 04:51:22;;;;;;;24.73;13.75;;;2.40;96.70;;;;;;5044527;28;20025;-82
2021/03/19 04:53:48;;;;;;;23.20;15.05;;;2.50;96.70;;;;;;5052901;28;20036;-81
2021/03/19 04:56:13;;;;;;;24.08;14.25;;;2.40;96.80;;;;;;5048932;28;20104;-81
2021/03/19 04:58:39;;;;;;;21.30;13.98;;;2.40;96.70;;;;;;5031933;28;20049;-83
2021/03/19 05:01:05;;;;;;;20.13;13.65;;;2.50;96.40;;;;;;5033166;28;20088;-82
2021/03/19 05:03:32;;;;;;;21.55;13.43;;;2.50;96.30;;;;;;5032076;28;20068;-81
2021/03/19 05:05:58;;;;;;;26.92;17.08;;;2.50;96.40;;;;;;5035159;28;20040;-83
2021/03/19 05:08:24;;;;;;;26.38;16.30;;;2.40;96.60;;;;;;5033132;28;20033;-83
2021/03/19 05:10:50;;;;;;;24.23;14.95;;;2.30;96.80;;;;;;5033326;28;20441;-83
2021/03/19 05:13:15;;;;;;;30.40;18.63;;;2.40;96.60;;;;;;5033263;28;20026;-81
2021/03/19 05:15:42;;;;;;;23.35;15.73;;;2.40;96.70;;;;;;5033133;28;20022;-84
2021/03/19 05:18:08;;;;;;;34.78;19.77;;;2.50;96.60;;;;;;5044271;28;20032;-82
2021/03/19 05:20:34;;;;;;;27.63;16.30;;;2.50;96.80;;;;;;5053008;28;20021;-83
2021/03/19 05:23:00;;;;;;;22.15;13.90;;;2.50;96.70;;;;;;5051800;28;20113;-83
2021/03/19 05:25:31;;;;;;;26.05;16.20;;;2.60;96.50;;;;;;5051742;28;20059;-83
2021/03/19 05:27:58;;;;;;;25.88;15.77;;;2.60;96.50;;;;;;5052914;28;20074;-82
2021/03/19 05:30:25;;;;;;;25.75;15.40;;;2.70;96.60;;;;;;5051558;28;20112;-82
2021/03/19 05:32:51;;;;;;;23.85;14.57;;;2.70;96.50;;;;;;5052995;28;20021;-82
2021/03/19 05:35:19;;;;;;;25.65;15.38;;;2.80;96.40;;;;;;5052880;28;20074;-82
2021/03/19 05:37:48;;;;;;;28.40;16.25;;;2.90;96.40;;;;;;5051504;28;20139;-82
2021/03/19 05:40:44;;;;;;;24.02;15.23;;;2.90;96.30;;;;;;5054976;28;20536;-82
2021/03/19 05:43:24;;;;;;;24.90;15.90;;;3.00;96.30;;;;;;5050055;28;20491;-82
2021/03/19 05:46:08;;;;;;;28.80;18.17;;;3.00;96.30;;;;;;5055309;28;20467;-82
2021/03/19 05:48:59;;;;;;;32.47;20.67;;;3.10;96.20;;;;;;5056311;28;20057;-83
2021/03/19 05:51:30;;;;;;;;;;;3.00;96.00;;;;;;5035465;28;20071;-84
2021/03/19 05:53:57;;;;;;;;;;;3.00;96.00;;;;;;5036761;28;19954;-84
2021/03/19 05:56:27;;;;;;;27.15;15.70;;;2.90;96.00;;;;;;5036426;28;20248;-83
2021/03/19 05:58:53;;;;;;;26.67;16.65;;;3.00;96.20;;;;;;5036320;28;20028;-83
2021/03/19 06:01:19;;;;;;;26.00;16.70;;;3.00;96.10;;;;;;5034956;28;20033;-83
2021/03/19 06:03:45;;;;;;;28.33;16.60;;;3.00;96.30;;;;;;5034829;28;20093;-82
2021/03/19 06:06:13;;;;;;;38.47;20.25;;;3.10;96.20;;;;;;5034893;28;20060;-82
2021/03/19 06:08:45;;;;;;;32.95;19.33;;;3.10;96.00;;;;;;5036102;28;20383;-82
2021/03/19 06:11:13;;;;;;;38.75;21.33;;;2.90;96.10;;;;;;5034667;28;20112;-85
2021/03/19 06:13:47;;;;;;;29.77;18.38;;;2.80;96.60;;;;;;5036232;28;20049;-85
2021/03/19 06:16:33;;;;;;;34.42;19.13;;;2.80;96.50;;;;;;5034674;28;20067;-82
2021/03/19 06:19:03;;;;;;;38.35;21.58;;;2.90;96.30;;;;;;5036021;28;20039;-82
2021/03/19 06:21:34;;;;;;;37.60;23.38;;;3.00;96.30;;;;;;5035846;28;20075;-82
2021/03/19 06:24:19;;;;;;;40.90;26.50;;;2.90;96.30;;;;;;5034485;28;20087;-81
2021/03/19 06:26:45;;;;;;;58.72;35.42;;;3.10;96.10;;;;;;5034407;28;20029;-81
2021/03/19 06:29:13;;;;;;;30.08;20.45;;;3.10;96.10;;;;;;5035790;28;20032;-81
2021/03/19 06:31:40;;;;;;;69.22;41.30;;;3.20;96.10;;;;;;5035489;28;20518;-81
2021/03/19 06:34:23;;;;;;;73.13;42.90;;;3.20;96.00;;;;;;5034413;28;20029;-81
2021/03/19 06:37:03;;;;;;;68.80;47.00;;;3.20;96.10;;;;;;5034406;28;20025;-81
2021/03/19 06:39:34;;;;;;;31.83;20.20;;;3.10;96.10;;;;;;5034399;28;20079;-81
2021/03/19 06:42:08;;;;;;;41.40;24.63;;;3.20;96.00;;;;;;5036041;28;20453;-81
2021/03/19 06:44:33;;;;;;;28.40;18.30;;;3.30;96.00;;;;;;5034190;28;20377;-81
2021/03/19 06:47:03;;;;;;;26.85;15.93;;;3.40;96.00;;;;;;5035356;28;20096;-81
2021/03/19 06:49:44;;;;;;;29.60;17.65;;;3.50;95.80;;;;;;5035503;28;20080;-82
2021/03/19 06:52:29;;;;;;;24.80;16.02;;;3.50;95.70;;;;;;5033877;28;20022;-82
2021/03/19 06:55:01;;;;;;;23.88;16.08;;;3.50;95.90;;;;;;5034029;28;20116;-82
2021/03/19 06:57:42;;;;;;;23.50;15.82;;;3.60;95.60;;;;;;5035025;28;20017;-82
2021/03/19 07:00:11;;;;;;;19.90;13.45;;;3.50;95.60;;;;;;5034929;28;20387;-82
2021/03/19 07:02:59;;;;;;;24.05;16.75;;;3.70;95.70;;;;;;5033748;28;20479;-82
2021/03/19 07:06:08;;;;;;;21.65;14.52;;;3.70;95.40;;;;;;5034996;28;20040;-82
2021/03/19 07:08:48;;;;;;;23.15;15.07;;;3.80;95.20;;;;;;5034969;28;20540;-82
2021/03/19 07:11:16;;;;;;;26.63;17.57;;;3.90;94.90;;;;;;5033487;28;20131;-82
2021/03/19 07:14:24;;;;;;;24.98;16.67;;;3.60;95.00;;;;;;5033557;28;20029;-82
2021/03/19 07:17:13;;;;;;;20.38;13.20;;;3.60;95.30;;;;;;5035093;28;20029;-82
2021/03/19 07:20:01;;;;;;;29.27;18.77;;;3.80;95.40;;;;;;5033755;28;20368;-82
2021/03/19 07:22:48;;;;;;;22.17;14.88;;;3.80;94.90;;;;;;5034178;28;20067;-82
2021/03/19 07:25:56;;;;;;;25.50;16.05;;;3.90;95.10;;;;;;5033691;28;20052;-82
2021/03/19 07:28:59;;;;;;;28.27;18.23;;;3.90;94.90;;;;;;5034414;28;20033;-82
2021/03/19 07:31:58;;;;;;;32.10;18.98;;;3.90;94.80;;;;;;5032924;28;20140;-82
2021/03/19 07:34:50;;;;;;;25.02;15.65;;;3.90;94.70;;;;;;5033229;28;20026;-82
2021/03/19 07:37:36;;;;;;;31.30;19.35;;;4.20;95.00;;;;;;5033065;28;20514;-81
2021/03/19 07:40:17;;;;;;;28.13;17.23;;;4.00;94.70;;;;;;5034563;28;20029;-81
2021/03/19 07:43:02;;;;;;;30.23;18.15;;;4.20;94.70;;;;;;5034829;28;20109;-81
2021/03/19 07:45:46;;;;;;;29.20;18.90;;;4.20;94.70;;;;;;5032947;28;20391;-82
2021/03/19 07:48:41;;;;;;;30.85;19.42;;;4.20;94.80;;;;;;5034127;28;20471;-81
2021/03/19 07:51:15;;;;;;;26.40;17.55;;;4.30;94.30;;;;;;5034189;28;20021;-80
2021/03/19 07:54:13;;;;;;;22.60;15.52;;;4.40;94.50;;;;;;5034299;28;20361;-79
2021/03/19 07:56:55;;;;;;;22.45;14.73;;;4.40;94.20;;;;;;5033093;28;20040;-80
2021/03/19 07:59:42;;;;;;;21.67;14.40;;;4.30;94.30;;;;;;5034093;28;20097;-79
2021/03/19 08:02:38;;;;;;;19.92;13.57;;;4.20;93.90;;;;;;5033971;28;20522;-79
2021/03/19 08:05:25;;;;;;;21.63;14.50;;;4.30;94.40;;;;;;5033755;28;20037;-79
2021/03/19 08:08:19;;;;;;;20.42;14.60;;;4.40;94.00;;;;;;5032995;28;20025;-79
2021/03/19 08:11:10;;;;;;;27.10;15.30;;;4.50;94.10;;;;;;5034419;28;20033;-79
2021/03/19 08:14:17;;;;;;;20.38;14.23;;;4.50;94.10;;;;;;5032711;28;20026;-79
2021/03/19 08:16:52;;;;;;;22.83;16.05;;;4.70;94.00;;;;;;5032441;28;20030;-79
2021/03/19 08:19:23;;;;;;;18.02;12.10;;;4.70;94.00;;;;;;5049191;28;20024;-79
2021/03/19 08:22:12;;;;;;;21.05;14.13;;;4.80;93.60;;;;;;5033639;28;20100;-79
2021/03/19 08:24:53;;;;;;;20.08;13.70;;;4.80;93.50;;;;;;5033798;28;20030;-79
2021/03/19 08:27:36;;;;;;;19.00;12.25;;;4.80;93.50;;;;;;5033786;28;20029;-79
2021/03/19 08:30:05;;;;;;;18.40;13.38;;;4.90;93.60;;;;;;5032347;28;20033;-79
2021/03/19 08:33:01;;;;;;;19.75;12.95;;;4.80;93.50;;;;;;5032330;28;20044;-79
2021/03/19 08:35:59;;;;;;;20.60;14.20;;;5.00;93.40;;;;;;5033762;28;20107;-79
2021/03/19 08:38:41;;;;;;;24.77;15.63;;;4.90;93.00;;;;;;5032848;28;20034;-79
2021/03/19 08:41:18;;;;;;;21.15;13.10;;;4.90;93.20;;;;;;5032290;28;20481;-79
2021/03/19 08:43:56;;;;;;;20.70;13.70;;;5.00;93.40;;;;;;5032305;28;20121;-79
2021/03/19 08:46:30;;;;;;;20.25;14.18;;;5.00;93.30;;;;;;5033514;28;20557;-79
2021/03/19 08:48:59;;;;;;;21.90;15.30;;;5.10;93.30;;;;;;5032328;28;20049;-79
2021/03/19 08:51:28;;;;;;;18.88;14.10;;;5.00;93.10;;;;;;5032264;28;20108;-79
2021/03/19 08:54:12;;;;;;;23.35;15.68;;;5.10;93.00;;;;;;5032183;28;20352;-79
2021/03/19 08:56:51;;;;;;;22.27;14.48;;;5.00;92.70;;;;;;5033420;28;20033;-79
2021/03/19 08:59:34;;;;;;;19.55;13.68;;;5.00;93.00;;;;;;5032088;28;20490;-79
2021/03/19 09:02:07;;;;;;;21.55;13.95;;;5.00;92.80;;;;;;5033350;28;20105;-79
2021/03/19 09:04:58;;;;;;;19.80;14.30;;;5.10;92.90;;;;;;5033354;28;20028;-79
2021/03/19 09:07:41;;;;;;;24.83;16.02;;;5.00;93.20;;;;;;5033710;28;20029;-79
2021/03/19 09:10:19;;;;;;;23.63;15.25;;;4.80;93.20;;;;;;5033576;28;20033;-79
2021/03/19 09:12:56;;;;;;;22.65;14.45;;;4.60;93.10;;;;;;5033492;28;20026;-79
2021/03/19 09:15:23;;;;;;;30.13;16.67;;;4.40;93.20;;;;;;5037112;28;20026;-79
2021/03/19 09:17:54;;;;;;;22.40;15.07;;;4.50;93.80;;;;;;5035978;28;20021;-79
2021/03/19 09:20:23;;;;;;;21.02;14.98;;;4.50;93.30;;;;;;5035987;28;20028;-79
2021/03/19 09:23:02;;;;;;;22.52;16.48;;;4.50;93.30;;;;;;5037067;28;20022;-79
2021/03/19 09:25:46;;;;;;;23.65;15.05;;;4.60;93.60;;;;;;5037283;28;20025;-79
2021/03/19 09:28:39;;;;;;;23.17;14.55;;;4.40;93.60;;;;;;5036959;28;20073;-79
2021/03/19 09:31:24;;;;;;;22.23;13.50;;;4.30;93.30;;;;;;5035292;28;20083;-79
2021/03/19 09:33:49;;;;;;;23.23;14.45;;;4.70;93.60;;;;;;5036963;28;20468;-79
2021/03/19 09:36:52;;;;;;;31.95;17.13;;;4.80;93.30;;;;;;5036820;28;20026;-80
2021/03/19 09:39:55;;;;;;;25.45;15.00;;;4.80;92.70;;;;;;5037032;28;20032;-80
2021/03/19 09:42:21;;;;;;;23.50;13.18;;;5.10;92.80;;;;;;5035319;28;20079;-80
2021/03/19 09:45:13;;;;;;;21.65;12.60;;;5.40;93.00;;;;;;5036901;28;20414;-79
2021/03/19 09:47:42;;;;;;;19.08;12.38;;;5.50;92.00;;;;;;5035174;28;20025;-79
2021/03/19 09:50:13;;;;;;;56.20;24.02;;;5.70;92.20;;;;;;5036400;28;20104;-79
2021/03/19 09:52:53;;;;;;;30.63;16.33;;;5.50;91.80;;;;;;5035159;28;20450;-79
2021/03/19 09:55:22;;;;;;;26.92;14.73;;;5.60;91.60;;;;;;5036462;28;20021;-79
2021/03/19 09:57:48;;;;;;;20.25;12.38;;;5.70;91.90;;;;;;5036397;28;20018;-79
2021/03/19 10:00:27;;;;;;;23.83;14.40;;;5.80;91.60;;;;;;5036317;28;20822;-79
2021/03/19 10:02:53;;;;;;;16.83;11.23;;;5.90;91.60;;;;;;5035114;28;20029;-80
2021/03/19 10:05:25;;;;;;;15.18;10.50;;;6.10;91.90;;;;;;5034982;28;20113;-80
2021/03/19 10:08:00;;;;;;;15.32;10.38;;;6.20;91.30;;;;;;5034993;28;20044;-79
2021/03/19 10:10:34;;;;;;;13.23;10.65;;;6.20;90.40;;;;;;5035426;28;20025;-79
2021/03/19 10:13:22;;;;;;;15.32;9.82;;;6.20;90.80;;;;;;5034697;28;20368;-79
2021/03/19 10:15:51;;;;;;;13.00;9.68;;;6.40;91.00;;;;;;5036452;28;20029;-79
2021/03/19 10:18:36;;;;;;;12.88;9.43;;;6.30;90.40;;;;;;5034777;28;20029;-79
2021/03/19 10:21:10;;;;;;;11.77;9.25;;;6.40;90.90;;;;;;5034714;28;20025;-79
2021/03/19 10:23:52;;;;;;;15.82;9.52;;;6.50;90.90;;;;;;5036065;28;20017;-79
2021/03/19 10:26:30;;;;;;;14.05;9.35;;;6.50;90.00;;;;;;5035591;28;20060;-79
2021/03/19 10:29:22;;;;;;;14.63;10.45;;;6.20;88.90;;;;;;5035749;28;20025;-79
2021/03/19 10:31:56;;;;;;;19.92;10.63;;;5.90;90.00;;;;;;5031745;28;20053;-79
2021/03/19 10:34:44;;;;;;;15.15;9.77;;;5.60;90.10;;;;;;5035684;28;20105;-79
2021/03/19 10:37:38;;;;;;;13.50;9.43;;;5.40;91.00;;;;;;5035769;28;20026;-79
2021/03/19 10:40:10;;;;;;;14.95;9.63;;;5.50;91.00;;;;;;5035565;28;20026;-79
2021/03/19 10:42:51;;;;;;;14.20;9.68;;;5.50;91.10;;;;;;5034273;28;20026;-78
2021/03/19 10:45:35;;;;;;;13.73;9.68;;;5.40;90.90;;;;;;5035349;28;20108;-79
2021/03/19 10:48:22;;;;;;;13.73;9.95;;;5.30;91.30;;;;;;5035477;28;20106;-79
2021/03/19 10:50:59;;;;;;;14.88;10.10;;;5.40;91.60;;;;;;5035195;28;20041;-79
2021/03/19 10:53:40;;;;;;;15.45;10.93;;;5.30;91.40;;;;;;5035341;28;20033;-78
2021/03/19 10:56:06;;;;;;;;;;;5.40;91.20;;;;;;5035661;28;20018;-79
2021/03/19 10:58:42;;;;;;;19.95;14.00;;;5.40;91.30;;;;;;5033971;28;19905;-81
2021/03/19 11:01:29;;;;;;;27.20;17.25;;;5.50;91.30;;;;;;5052522;28;20021;-81
2021/03/19 11:03:55;;;;;;;20.30;13.20;;;5.60;91.20;;;;;;5054858;28;20021;-81
2021/03/19 11:06:36;;;;;;;21.88;13.98;;;5.50;91.20;;;;;;5054971;28;20059;-81
2021/03/19 11:09:23;;;;;;;20.40;11.75;;;5.70;91.20;;;;;;5053599;28;20052;-79
2021/03/19 11:11:59;;;;;;;32.13;17.42;;;5.80;91.20;;;;;;5054811;28;20033;-79
2021/03/19 11:14:29;;;;;;;36.42;21.35;;;5.60;91.20;;;;;;5053550;28;20539;-79
2021/03/19 11:17:14;;;;;;;28.33;17.23;;;5.50;90.70;;;;;;5054885;28;20052;-79
2021/03/19 11:20:01;;;;;;;24.92;13.98;;;5.60;91.50;;;;;;5053517;28;20020;-79
2021/03/19 11:22:40;;;;;;;19.13;11.50;;;5.80;91.60;;;;;;5053373;28;20046;-79
2021/03/19 11:25:23;;;;;;;16.52;11.18;;;5.80;91.60;;;;;;5053308;28;20048;-79
2021/03/19 11:27:50;;;;;;;18.60;11.85;;;5.80;91.60;;;;;;5054505;28;20025;-79
2021/03/19 11:30:27;;;;;;;19.20;11.43;;;5.90;91.40;;;;;;5052975;28;20494;-79
2021/03/19 11:33:02;;;;;;;16.33;9.95;;;5.90;91.40;;;;;;5054410;28;20104;-79
2021/03/19 11:35:29;;;;;;;17.00;11.50;;;5.90;91.60;;;;;;5052949;28;20410;-78
2021/03/19 11:37:55;;;;;;;14.88;10.10;;;5.90;91.70;;;;;;5052496;28;20383;-78
2021/03/19 11:40:20;;;;;;;20.35;12.50;;;6.00;91.90;;;;;;5054509;28;20032;-78
2021/03/19 11:42:55;;;;;;;18.83;11.07;;;5.90;91.40;;;;;;5054319;28;20032;-78
2021/03/19 11:45:32;;;;;;;16.67;11.38;;;6.10;91.80;;;;;;5054128;28;20071;-78
2021/03/19 11:47:58;;;;;;;13.80;9.88;;;6.10;91.60;;;;;;5052940;28;20021;-78
2021/03/19 11:50:24;;;;;;;13.27;9.88;;;6.20;91.70;;;;;;5052870;28;20029;-78
2021/03/19 11:52:53;;;;;;;13.95;9.38;;;6.20;91.70;;;;;;5052794;28;20025;-78
2021/03/19 11:55:31;;;;;;;13.70;9.35;;;6.20;91.70;;;;;;5053925;28;20067;-78
2021/03/19 11:57:56;;;;;;;12.77;9.05;;;6.20;91.70;;;;;;5053966;28;20055;-78
2021/03/19 12:00:27;;;;;;;11.82;8.77;;;6.20;91.60;;;;;;5054297;28;20025;-78
2021/03/19 12:03:00;;;;;;;12.52;9.50;;;6.20;91.60;;;;;;5053911;28;20112;-78
2021/03/19 12:05:26;;;;;;;15.30;9.50;;;6.20;91.50;;;;;;5053818;28;20111;-78
2021/03/19 12:07:52;;;;;;;13.32;9.23;;;6.20;91.60;;;;;;5053798;28;20059;-78
2021/03/19 12:10:22;;;;;;;14.15;10.63;;;6.20;91.60;;;;;;5053887;28;20025;-78
2021/03/19 12:12:47;;;;;;;18.65;12.13;;;6.10;91.50;;;;;;5053752;28;20021;-78
2021/03/19 12:15:17;;;;;;;20.80;12.15;;;6.00;91.20;;;;;;5053917;28;20021;-79
2021/03/19 12:17:43;;;;;;;15.27;11.02;;;5.90;91.40;;;;;;5054000;28;20032;-79
2021/03/19 12:20:10;;;;;;;15.25;10.55;;;5.90;91.70;;;;;;5052385;28;20115;-79
2021/03/19 12:22:36;;;;;;;16.08;11.07;;;5.80;91.80;;;;;;5052347;28;20111;-78
2021/03/19 12:25:03;;;;;;;15.30;12.45;;;5.80;91.70;;;;;;5052412;28;20064;-78
2021/03/19 12:27:29;;;;;;;15.50;10.52;;;5.80;91.80;;;;;;5053533;28;20032;-78
2021/03/19 12:29:56;;;;;;;14.52;10.77;;;5.80;91.50;;;;;;5053342;28;20029;-78
2021/03/19 12:32:22;;;;;;;14.95;10.80;;;5.70;91.60;;;;;;5053289;28;20056;-79
2021/03/19 12:34:49;;;;;;;19.02;12.27;;;5.80;91.70;;;;;;5052198;28;20025;-78
2021/03/19 12:37:15;;;;;;;17.67;12.40;;;5.70;91.70;;;;;;5053464;28;20025;-78
2021/03/19 12:39:41;;;;;;;17.25;11.73;;;5.70;91.60;;;;;;5053735;28;20021;-78
2021/03/19 12:42:07;;;;;;;17.83;12.35;;;5.70;91.60;;;;;;5052161;28;20040;-78
2021/03/19 12:44:33;;;;;;;16.90;12.60;;;5.70;91.50;;;;;;5053248;28;20021;-78
2021/03/19 12:47:00;;;;;;;30.23;17.75;;;5.70;91.40;;;;;;5053386;28;20127;-78
2021/03/19 12:49:28;;;;;;;25.15;15.73;;;5.60;91.40;;;;;;5057897;28;20035;-78
2021/03/19 12:51:55;;;;;;;25.85;15.27;;;5.50;91.60;;;;;;5057470;28;20029;-78
2021/03/19 12:54:20;;;;;;;22.83;14.13;;;5.50;91.50;;;;;;5057691;28;20020;-78
2021/03/19 12:56:46;;;;;;;20.83;13.20;;;5.50;91.40;;;;;;5057487;28;20374;-78
2021/03/19 12:59:12;;;;;;;22.17;15.68;;;5.40;91.50;;;;;;5057389;28;20029;-77
2021/03/19 13:01:37;;;;;;;25.25;16.63;;;5.40;91.50;;;;;;5056177;28;20029;-77
2021/03/19 13:04:03;;;;;;;29.90;18.85;;;5.30;92.00;;;;;;5057670;28;20025;-77
2021/03/19 13:06:29;;;;;;;28.13;18.25;;;5.20;91.90;;;;;;5057204;28;20021;-77
2021/03/19 13:08:55;;;;;;;47.38;28.25;;;5.20;92.00;;;;;;5057194;28;20032;-78
2021/03/19 13:11:21;;;;;;;30.38;19.38;;;5.20;92.20;;;;;;5055882;28;20079;-77
2021/03/19 13:13:47;;;;;;;40.35;22.35;;;5.00;92.40;;;;;;5057124;28;20025;-77